createdAt,value
2022-12-03T00:01:24.031Z,11.67
2022-12-03T00:04:26.670Z,11.20
2022-12-03T00:07:29.393Z,11.13
2022-12-03T00:10:32.140Z,10.30
2022-12-03T00:13:38.473Z,10.23
2022-12-03T00:16:46.160Z,12.67
2022-12-03T00:19:53.634Z,9.13
2022-12-03T00:22:58.616Z,10.83
2022-12-03T00:26:03.562Z,8.23
2022-12-03T00:29:10.527Z,8.87
2022-12-03T00:32:15.062Z,10.13
2022-12-03T00:35:20.361Z,10.77
2022-12-03T00:38:25.182Z,10.77
2022-12-03T00:41:32.358Z,8.83
2022-12-03T00:44:38.585Z,11.17
2022-12-03T00:47:43.461Z,14.57
2022-12-03T00:50:48.111Z,13.23
2022-12-03T00:53:52.923Z,11.10
2022-12-03T00:56:57.679Z,13.47
2022-12-03T01:00:05.407Z,14.87
2022-12-03T01:03:10.857Z,11.53
2022-12-03T01:06:15.362Z,11.27
2022-12-03T01:09:19.736Z,12.30
2022-12-03T01:12:24.652Z,12.27
2022-12-03T01:15:33.767Z,13.83
2022-12-03T01:18:38.574Z,15.37
2022-12-03T01:21:43.715Z,12.73
2022-12-03T01:24:48.357Z,14.10
2022-12-03T01:27:53.410Z,12.27
2022-12-03T01:31:27.547Z,11.17
2022-12-03T01:34:32.224Z,13.43
2022-12-03T01:37:37.196Z,11.93
2022-12-03T01:40:41.898Z,11.10
2022-12-03T01:43:46.887Z,14.50
2022-12-03T01:46:55.314Z,11.57
2022-12-03T01:50:05.171Z,10.40
2022-12-03T01:53:13.567Z,13.43
2022-12-03T01:56:19.934Z,11.40
2022-12-03T01:59:31.819Z,14.67
2022-12-03T02:02:38.209Z,10.83
2022-12-03T02:05:43.168Z,13.20
2022-12-03T02:08:50.327Z,12.73
2022-12-03T02:11:54.809Z,11.93
2022-12-03T02:14:59.620Z,11.60
2022-12-03T02:18:05.751Z,12.97
2022-12-03T02:21:16.491Z,12.17
2022-12-03T02:24:30.365Z,11.40
2022-12-03T02:27:36.525Z,11.37
2022-12-03T02:30:41.939Z,12.00
2022-12-03T02:33:46.916Z,9.77
2022-12-03T02:36:51.323Z,8.43
2022-12-03T02:39:58.718Z,9.87
2022-12-03T02:43:07.939Z,9.33
2022-12-03T02:46:12.882Z,10.83
2022-12-03T02:49:17.847Z,8.20
2022-12-03T02:52:22.875Z,9.20
2022-12-03T02:55:33.309Z,12.13
2022-12-03T02:58:44.189Z,8.23
2022-12-03T03:01:48.947Z,9.07
2022-12-03T03:04:53.762Z,10.97
2022-12-03T03:08:01.096Z,9.87
2022-12-03T03:11:06.208Z,11.97
2022-12-03T03:14:12.328Z,10.47
2022-12-03T03:17:17.522Z,8.90
2022-12-03T03:20:22.546Z,9.07
2022-12-03T03:23:27.618Z,11.30
2022-12-03T03:26:32.028Z,10.73
2022-12-03T03:29:38.693Z,10.37
2022-12-03T03:32:44.216Z,8.27
2022-12-03T03:35:50.572Z,11.83
2022-12-03T03:38:55.756Z,9.30
2022-12-03T03:42:00.764Z,10.33
2022-12-03T03:45:08.380Z,9.20
2022-12-03T03:48:15.209Z,9.40
2022-12-03T03:51:21.552Z,10.40
2022-12-03T03:54:26.823Z,9.23
2022-12-03T03:57:31.912Z,10.97
2022-12-03T04:00:39.630Z,10.33
2022-12-03T04:03:44.730Z,12.33
2022-12-03T04:06:49.080Z,10.33
2022-12-03T04:09:53.512Z,10.40
2022-12-03T04:12:56.890Z,13.17
2022-12-03T04:16:03.478Z,10.80
2022-12-03T04:19:08.117Z,9.97
2022-12-03T04:22:29.362Z,14.10
2022-12-03T04:25:50.961Z,11.93
2022-12-03T04:28:55.805Z,13.03
2022-12-03T04:32:18.970Z,11.53
2022-12-03T04:35:40.350Z,12.57
2022-12-03T04:38:45.012Z,13.90
2022-12-03T04:41:49.453Z,12.97
2022-12-03T04:44:56.288Z,12.90
2022-12-03T04:48:02.414Z,11.70
2022-12-03T04:51:07.308Z,12.27
2022-12-03T04:54:12.029Z,12.03
2022-12-03T04:57:16.723Z,12.83
2022-12-03T05:00:21.578Z,12.13
2022-12-03T05:03:27.640Z,14.60
2022-12-03T05:06:32.138Z,12.57
2022-12-03T05:09:36.812Z,15.87
2022-12-03T05:12:41.570Z,14.23
2022-12-03T05:15:46.205Z,14.23
2022-12-03T05:18:52.058Z,14.90
2022-12-03T05:21:56.348Z,13.43
2022-12-03T05:25:01.049Z,13.70
2022-12-03T05:28:05.879Z,13.60
2022-12-03T05:31:10.651Z,12.90
2022-12-03T05:34:17.263Z,16.50
2022-12-03T05:37:21.983Z,14.20
2022-12-03T05:40:27.077Z,15.10
2022-12-03T05:43:30.495Z,11.30
2022-12-03T05:46:35.191Z,14.87
2022-12-03T05:49:41.520Z,15.60
2022-12-03T05:52:46.343Z,12.23
2022-12-03T05:55:51.648Z,14.33
2022-12-03T05:58:57.243Z,16.17
2022-12-03T06:02:02.110Z,14.93
2022-12-03T06:05:09.754Z,16.00
2022-12-03T06:08:14.208Z,13.57
2022-12-03T06:11:18.820Z,13.97
2022-12-03T06:14:23.068Z,14.73
2022-12-03T06:17:27.594Z,15.27
2022-12-03T06:20:34.098Z,14.30
2022-12-03T06:23:44.972Z,16.47
2022-12-03T06:26:49.371Z,14.77
2022-12-03T06:29:53.724Z,17.37
2022-12-03T06:32:58.305Z,17.57
2022-12-03T06:36:05.126Z,15.13
2022-12-03T06:39:09.478Z,17.10
2022-12-03T06:42:13.694Z,17.47
2022-12-03T06:45:18.386Z,16.70
2022-12-03T06:48:23.078Z,22.77
2022-12-03T06:51:29.058Z,19.23
2022-12-03T06:54:33.389Z,21.23
2022-12-03T06:57:38.128Z,15.83
2022-12-03T07:00:42.386Z,17.37
2022-12-03T07:03:47.048Z,18.33
2022-12-03T07:06:54.804Z,19.43
2022-12-03T07:09:59.716Z,18.17
2022-12-03T07:13:04.289Z,20.23
2022-12-03T07:16:12.111Z,20.00
2022-12-03T07:19:17.243Z,20.07
2022-12-03T07:22:23.464Z,18.17
2022-12-03T07:25:28.126Z,20.20
2022-12-03T07:28:32.760Z,16.43
2022-12-03T07:31:37.136Z,18.93
2022-12-03T07:34:42.428Z,19.67
2022-12-03T07:37:50.322Z,21.60
2022-12-03T07:40:55.166Z,17.43
2022-12-03T07:43:59.912Z,22.67
2022-12-03T07:47:04.665Z,16.63
2022-12-03T07:50:10.846Z,20.20
2022-12-03T07:53:17.585Z,17.30
2022-12-03T07:56:25.377Z,17.33
2022-12-03T07:59:30.637Z,21.83
2022-12-03T08:02:35.823Z,19.37
2022-12-03T08:05:49.373Z,20.03
2022-12-03T08:09:02.341Z,19.47
2022-12-03T08:12:14.983Z,20.43
2022-12-03T08:15:26.030Z,19.60
2022-12-03T08:18:31.666Z,22.83
2022-12-03T08:21:38.756Z,20.97
2022-12-03T08:24:45.272Z,20.27
2022-12-03T08:28:45.983Z,25.97
2022-12-03T08:31:55.168Z,21.13
2022-12-03T08:35:00.140Z,18.80
2022-12-03T08:38:12.117Z,21.23
2022-12-03T08:41:40.326Z,18.13
2022-12-03T08:44:45.125Z,23.50
2022-12-03T08:47:50.060Z,21.10
2022-12-03T08:50:57.379Z,23.00
2022-12-03T08:54:09.773Z,17.47
2022-12-03T08:57:30.118Z,22.17
2022-12-03T09:00:34.760Z,22.00
2022-12-03T09:03:40.727Z,19.07
2022-12-03T09:06:45.550Z,18.93
2022-12-03T09:09:51.025Z,22.77
2022-12-03T09:12:58.500Z,23.50
2022-12-03T09:16:03.606Z,19.90
2022-12-03T09:19:08.435Z,18.97
2022-12-03T09:22:13.688Z,18.30
2022-12-03T09:25:19.190Z,23.27
2022-12-03T09:28:25.823Z,19.87
2022-12-03T09:31:30.941Z,17.20
2022-12-03T09:34:35.534Z,18.40
2022-12-03T09:37:40.583Z,17.30
2022-12-03T09:40:45.469Z,17.93
2022-12-03T09:44:10.801Z,18.80
2022-12-03T09:47:17.353Z,18.53
2022-12-03T09:50:23.810Z,15.40
2022-12-03T09:53:30.370Z,20.83
2022-12-03T09:56:37.829Z,13.13
2022-12-03T09:59:44.179Z,15.17
2022-12-03T10:02:50.664Z,18.27
2022-12-03T10:05:56.781Z,16.47
2022-12-03T10:09:01.753Z,16.07
2022-12-03T10:12:09.963Z,17.40
2022-12-03T10:15:18.598Z,16.73
2022-12-03T10:18:30.480Z,14.97
2022-12-03T10:21:39.830Z,14.97
2022-12-03T10:24:45.443Z,15.90
2022-12-03T10:28:03.144Z,16.03
2022-12-03T10:31:10.706Z,17.33
2022-12-03T10:34:26.944Z,16.57
2022-12-03T10:37:32.312Z,18.20
2022-12-03T10:40:41.067Z,17.07
2022-12-03T10:43:46.106Z,14.63
2022-12-03T10:47:10.707Z,21.97
2022-12-03T10:50:23.467Z,13.70
2022-12-03T10:53:32.015Z,14.00
2022-12-03T10:56:37.221Z,15.63
2022-12-03T10:59:43.700Z,13.73
2022-12-03T11:03:05.225Z,14.30
2022-12-03T11:06:15.695Z,17.13
2022-12-03T11:09:27.188Z,23.23
2022-12-03T11:12:35.252Z,17.10
2022-12-03T11:15:47.474Z,20.10
2022-12-03T11:19:04.435Z,16.20
2022-12-03T11:22:41.782Z,28.67
2022-12-03T11:25:50.917Z,18.50
2022-12-03T11:28:56.939Z,19.40
2022-12-03T11:32:01.973Z,18.13
2022-12-03T11:35:14.922Z,21.47
2022-12-03T11:38:48.899Z,18.40
2022-12-03T11:42:30.810Z,19.47
2022-12-03T11:45:38.338Z,16.67
2022-12-03T11:48:46.367Z,18.23
2022-12-03T11:51:54.893Z,15.93
2022-12-03T11:55:04.527Z,17.13
2022-12-03T11:58:19.570Z,15.87
2022-12-03T12:01:38.945Z,16.23
2022-12-03T12:04:48.585Z,17.10
2022-12-03T12:07:55.227Z,13.73
2022-12-03T12:11:00.970Z,16.57
2022-12-03T12:14:06.742Z,14.47
2022-12-03T12:17:36.301Z,14.63
2022-12-03T12:20:41.173Z,13.47
2022-12-03T12:23:47.767Z,13.53
2022-12-03T12:26:53.303Z,15.37
2022-12-03T12:30:00.540Z,14.60
2022-12-03T12:33:16.263Z,12.87
2022-12-03T12:36:21.187Z,11.43
2022-12-03T12:39:29.004Z,15.17
2022-12-03T12:42:36.248Z,12.63
2022-12-03T12:45:43.631Z,11.93
2022-12-03T12:48:48.636Z,13.10
2022-12-03T12:51:53.685Z,14.77
2022-12-03T12:55:04.851Z,12.93
2022-12-03T12:58:16.131Z,13.53
2022-12-03T13:01:26.068Z,13.57
2022-12-03T13:04:33.185Z,12.63
2022-12-03T13:07:38.044Z,14.07
2022-12-03T13:10:44.091Z,12.67
2022-12-03T13:13:49.305Z,11.17
2022-12-03T13:16:57.045Z,10.47
2022-12-03T13:20:07.884Z,11.00
2022-12-03T13:23:28.812Z,14.17
2022-12-03T13:26:42.057Z,13.30
2022-12-03T13:29:48.158Z,12.13
2022-12-03T13:32:55.870Z,15.37
2022-12-03T13:35:59.938Z,15.07
2022-12-03T13:39:11.237Z,16.03
2022-12-03T13:42:42.342Z,13.13
2022-12-03T13:45:49.696Z,12.07
2022-12-03T13:48:58.686Z,15.73
2022-12-03T13:52:11.153Z,19.80
2022-12-03T13:55:24.532Z,16.53
2022-12-03T13:58:30.985Z,19.27
2022-12-03T14:01:36.550Z,16.00
2022-12-03T14:04:41.946Z,12.43
2022-12-03T14:07:46.528Z,13.70
2022-12-03T14:10:55.552Z,15.07
2022-12-03T14:14:07.939Z,12.33
2022-12-03T14:17:14.566Z,15.97
2022-12-03T14:20:19.938Z,17.40
2022-12-03T14:23:25.754Z,16.50
2022-12-03T14:26:30.545Z,13.60
2022-12-03T14:29:36.963Z,13.10
2022-12-03T14:32:43.058Z,13.97
2022-12-03T14:35:47.633Z,13.40
2022-12-03T14:38:52.406Z,15.07
2022-12-03T14:42:15.626Z,15.70
2022-12-03T14:45:23.366Z,18.47
2022-12-03T14:48:29.973Z,14.87
2022-12-03T14:51:34.621Z,18.17
2022-12-03T14:54:42.893Z,14.07
2022-12-03T14:57:47.783Z,15.17
2022-12-03T15:00:54.166Z,17.70
2022-12-03T15:03:58.816Z,17.90
2022-12-03T15:07:03.962Z,15.83
2022-12-03T15:10:09.691Z,15.10
2022-12-03T15:13:14.726Z,18.03
2022-12-03T15:16:22.888Z,12.27
2022-12-03T15:19:27.709Z,16.23
2022-12-03T15:22:32.574Z,14.67
2022-12-03T15:25:38.013Z,11.63
2022-12-03T15:28:47.928Z,15.37
2022-12-03T15:31:54.761Z,17.20
2022-12-03T15:35:00.277Z,13.60
2022-12-03T15:38:05.427Z,17.70
2022-12-03T15:41:29.526Z,15.67
2022-12-03T15:44:37.909Z,12.33
2022-12-03T15:47:44.988Z,11.17
2022-12-03T15:50:50.657Z,13.33
2022-12-03T15:53:55.745Z,15.43
2022-12-03T15:57:00.558Z,11.93
2022-12-03T16:00:06.710Z,12.07
2022-12-03T16:03:13.290Z,15.10
2022-12-03T16:06:20.064Z,11.80
2022-12-03T16:09:27.389Z,11.87
2022-12-03T16:12:32.446Z,11.97
2022-12-03T16:15:36.992Z,12.57
2022-12-03T16:18:44.632Z,12.60
2022-12-03T16:21:49.494Z,11.93
2022-12-03T16:24:54.370Z,15.20
2022-12-03T16:27:59.524Z,13.40
2022-12-03T16:31:05.077Z,13.17
2022-12-03T16:34:13.452Z,14.70
2022-12-03T16:37:18.126Z,12.80
2022-12-03T16:40:22.638Z,13.90
2022-12-03T16:43:27.881Z,15.63
2022-12-03T16:46:32.983Z,11.83
2022-12-03T16:49:39.371Z,11.53
2022-12-03T16:52:43.644Z,10.37
2022-12-03T16:55:48.151Z,10.67
2022-12-03T16:58:53.781Z,14.33
2022-12-03T17:01:58.211Z,16.63
2022-12-03T17:05:04.219Z,14.93
2022-12-03T17:08:07.439Z,13.03
2022-12-03T17:11:10.536Z,15.80
2022-12-03T17:14:13.449Z,10.23
2022-12-03T17:17:16.320Z,10.43
2022-12-03T17:20:21.279Z,13.53
2022-12-03T17:23:24.608Z,11.27
2022-12-03T17:26:27.649Z,10.90
2022-12-03T17:29:30.646Z,14.10
2022-12-03T17:32:33.635Z,13.60
2022-12-03T17:35:37.745Z,11.77
2022-12-03T17:38:40.617Z,14.47
2022-12-03T17:41:43.569Z,15.10
2022-12-03T17:44:46.613Z,10.23
2022-12-03T17:47:49.588Z,13.90
2022-12-03T17:50:55.340Z,13.90
2022-12-03T17:53:58.151Z,14.33
2022-12-03T17:57:01.102Z,11.03
2022-12-03T18:00:05.476Z,12.33
2022-12-03T18:03:08.297Z,12.43
2022-12-03T18:06:12.561Z,15.40
2022-12-03T18:09:15.597Z,13.60
2022-12-03T18:12:18.516Z,11.97
2022-12-03T18:15:21.352Z,10.70
2022-12-03T18:18:24.185Z,12.57
2022-12-03T18:21:29.133Z,14.73
2022-12-03T18:24:31.998Z,11.77
2022-12-03T18:27:35.176Z,13.20
2022-12-03T18:30:38.098Z,12.83
2022-12-03T18:33:41.120Z,12.50
2022-12-03T18:36:45.515Z,14.30
2022-12-03T18:39:48.978Z,15.30
2022-12-03T18:42:52.032Z,14.40
2022-12-03T18:45:55.089Z,13.67
2022-12-03T18:48:58.048Z,18.67
2022-12-03T18:52:02.464Z,14.40
2022-12-03T18:55:06.353Z,14.40
2022-12-03T18:58:09.415Z,14.70
2022-12-03T19:01:16.188Z,18.97
2022-12-03T19:04:20.493Z,18.33
2022-12-03T19:07:24.659Z,14.77
2022-12-03T19:10:28.366Z,14.63
2022-12-03T19:13:31.302Z,13.33
2022-12-03T19:16:39.730Z,13.83
2022-12-03T19:19:42.736Z,14.97
2022-12-03T19:22:47.181Z,15.00
2022-12-03T19:25:56.945Z,15.10
2022-12-03T19:28:59.795Z,13.37
2022-12-03T19:32:09.986Z,14.60
2022-12-03T19:35:21.446Z,16.63
2022-12-03T19:38:27.177Z,18.47
2022-12-03T19:41:31.435Z,19.97
2022-12-03T19:44:34.717Z,20.10
2022-12-03T19:47:38.114Z,17.27
2022-12-03T19:50:58.389Z,18.50
2022-12-03T19:54:14.082Z,19.57
2022-12-03T19:57:23.086Z,18.53
2022-12-03T20:00:26.281Z,19.67
2022-12-03T20:03:29.040Z,17.07
2022-12-03T20:06:34.901Z,18.47
2022-12-03T20:09:39.057Z,23.33
2022-12-03T20:12:41.714Z,18.80
2022-12-03T20:15:44.436Z,17.93
2022-12-03T20:18:57.410Z,20.00
2022-12-03T20:22:02.705Z,22.57
2022-12-03T20:25:17.759Z,18.67
2022-12-03T20:28:20.550Z,20.40
2022-12-03T20:31:24.784Z,16.10
2022-12-03T20:34:27.547Z,19.57
2022-12-03T20:37:30.319Z,23.30
2022-12-03T20:40:37.765Z,14.37
2022-12-03T20:43:40.695Z,22.47
2022-12-03T20:46:43.495Z,23.37
2022-12-03T20:49:46.333Z,19.33
2022-12-03T20:53:09.756Z,20.20
2022-12-03T20:56:18.590Z,22.97
2022-12-03T20:59:24.050Z,17.03
2022-12-03T21:02:28.066Z,15.80
2022-12-03T21:05:30.848Z,18.37
2022-12-03T21:08:41.064Z,16.00
2022-12-03T21:11:46.485Z,19.17
2022-12-03T21:14:49.392Z,18.93
2022-12-03T21:17:52.246Z,19.73
2022-12-03T21:20:55.014Z,18.20
2022-12-03T21:23:58.141Z,17.83
2022-12-03T21:27:02.291Z,23.13
2022-12-03T21:30:06.160Z,17.57
2022-12-03T21:33:08.986Z,22.67
2022-12-03T21:36:14.144Z,17.80
2022-12-03T21:39:16.844Z,21.27
2022-12-03T21:42:34.368Z,19.93
2022-12-03T21:45:40.793Z,22.23
2022-12-03T21:48:43.640Z,20.07
2022-12-03T21:51:46.732Z,22.37
2022-12-03T21:54:49.566Z,17.93
2022-12-03T21:57:53.968Z,20.57
2022-12-03T22:00:56.761Z,18.53
2022-12-03T22:03:59.678Z,22.60
2022-12-03T22:07:02.451Z,17.90
2022-12-03T22:10:06.113Z,23.90
2022-12-03T22:13:10.331Z,23.67
2022-12-03T22:16:15.507Z,16.37
2022-12-03T22:19:18.280Z,18.70
2022-12-03T22:22:21.475Z,19.63
2022-12-03T22:25:24.185Z,20.63
2022-12-03T22:28:29.470Z,17.87
2022-12-03T22:31:32.311Z,15.73
2022-12-03T22:34:35.127Z,16.87
2022-12-03T22:37:37.857Z,20.90
2022-12-03T22:40:40.815Z,18.77
2022-12-03T22:43:46.050Z,18.17
2022-12-03T22:46:48.834Z,14.20
2022-12-03T22:49:51.649Z,17.73
2022-12-03T22:52:54.336Z,22.90
2022-12-03T22:55:58.475Z,21.20
2022-12-03T22:59:02.790Z,20.17
2022-12-03T23:02:05.538Z,17.87
2022-12-03T23:05:08.596Z,19.07
2022-12-03T23:08:13.691Z,19.83
2022-12-03T23:11:17.202Z,18.97
2022-12-03T23:14:21.679Z,17.73
2022-12-03T23:17:24.614Z,17.67
2022-12-03T23:20:30.063Z,16.97
2022-12-03T23:23:32.893Z,18.10
2022-12-03T23:26:37.314Z,16.17
2022-12-03T23:29:41.690Z,20.07
2022-12-03T23:32:44.937Z,14.67
2022-12-03T23:35:47.644Z,19.47
2022-12-03T23:38:51.124Z,20.40
2022-12-03T23:41:53.810Z,17.87
2022-12-03T23:44:57.896Z,16.17
2022-12-03T23:48:00.730Z,16.37
2022-12-03T23:51:08.019Z,16.23
2022-12-03T23:54:12.124Z,18.87
2022-12-03T23:57:15.916Z,15.00
